Terminal Aerodrome Forecast
Issued by NWS

Home | Current Version | Previous Version | Text Only | Print | Product List | Glossary On
Versions: 1 2 3 4 5 6 7 8 9 10 11 12 13 14 15 16 17 18
680
FTUS43 KPAH 201733
TAFCGI
TAF
KCGI 201733Z 2018/2118 22010G20KT P6SM SCT050 BKN100
      TEMPO 2020/2023 VRB20G30KT 3SM -TSRA BR BKN025CB OVC050
     FM210300 35007KT P6SM BKN040=

USA.gov is the U.S. government's official web portal to all federal, state and local government web resources and services.